Aeroporto :
LOGIN :

Iscrizione | Disclaimer

   EN    FR    IT 

 










Sommario :    VFR   VFR Marginale   IFR   IFR Intensivo   IFR Molto Intensivo
Visibilità : 
Base nubi : 
>= 8 km
>= 3000ft
5 / 8 km
1000 / 3000 ft
1500m / 5 km
500 / 1000 ft
800 / 1500m
200 / 500 ft
< 800m
< 200 ft
Simboli :   Temporali  Nebbia  Neve Forte  Precipitazioni Forti  Vento > 20 kt
SIGMETs :   Varie  Temporali  Ghiacco  Turbolenza  Onda orograficha  Ceneri Vulcaniche






- Altitudine del aeroporto : 160 ft
- Codice IATA : LRT


LFRH - Lorient Lann Bihoue

ULTIMO METAR :
  • 192200Z AUTO 23014KT 9999 OVC043 10/06 Q1022 TEMPO 4500 RA BKN010

METARs OBSOLETI :
  • 192130Z AUTO 23017KT 9999 FEW039 OVC045 10/06 Q1023 TEMPO 4500 RA BKN010 BECMG 24010G20KT
  • 192100Z AUTO 23014KT 9999 FEW037 OVC044 10/08 Q1023 TEMPO 4500 RA BKN010
  • 192030Z AUTO 26012KT 9999 FEW013 SCT025 OVC041 09/07 Q1023 TEMPO 4500 RA BKN010
  • 192000Z AUTO 23013KT 9999 FEW034 SCT040 OVC046 10/08 Q1023 TEMPO 4500 RA BKN010
  • 191930Z AUTO 23014KT 9999 FEW035 OVC044 10/07 Q1024 TEMPO 4500 RA BKN010

TAF TAF LFRH
Valido dal 19 a 18 ore il 20 a 18 ore UTC


191700Z 1918/2018 24010G20KT 9999 SCT015 BKN025
PROB40
TEMPO 1918/2002 4500 RA BKN010
BECMG 2008/2010 22020G35KT BKN015
BECMG 2010/2012 4000 RA BKN008 OVC012
BECMG 2012/2014 32025G35KT
BECMG 2014/2016 32012KT 9999 NSW BKN030



MetMap, La meteo Aeronautica in un colpo d'occhio ! - Copyright ORBIFLY Dicembre 2007 - Disclaimer

ORBIFLY MET'MAP TEAM :

Programmazione e sviluppo : Alexandra Zaïnal
Concezione : Baudouin d'Aumeries
Aiuto per la programmazione : Marc-Olivier Méhu
Supporto tecnico e logistico : Manuel Goepfert
Aiuto per la traduzione : Arnaldo La Scala

Contatto : metmap@orbifly.com




FONTI E CREDITI :

   NOAA